Time;durP1;ratioP1;P1;durP2;ratioP2;P2;SDS_P1;SDS_P2;PMS_P1;PMS_P2;Temp;Humidity;BMP_temperature;BMP_pressure;BME280_temperature;BME280_humidity;BME280_pressure;Samples;Min_cycle;Max_cycle;Signal;HPM_P1;HPM_P2
2022/07/21 05:02:19;;;;;;;9.80;8.43;;;20.50;99.90;;;;;;5568924;23;20300;-71
2022/07/21 05:04:45;;;;;;;11.50;9.85;;;20.50;99.90;;;;;;4948307;29;20039;-77
2022/07/21 05:07:11;;;;;;;12.38;9.70;;;20.70;99.90;;;;;;4964046;29;20063;-73
2022/07/21 05:09:37;;;;;;;10.70;9.23;;;20.70;99.90;;;;;;4964273;29;20305;-72
2022/07/21 05:12:03;;;;;;;13.40;8.55;;;20.70;99.90;;;;;;4969437;29;20051;-71
2022/07/21 05:14:28;;;;;;;13.63;9.20;;;20.70;99.90;;;;;;4964966;29;20058;-70
2022/07/21 05:16:54;;;;;;;10.35;9.15;;;20.80;99.90;;;;;;4964136;29;20034;-69
2022/07/21 05:19:20;;;;;;;10.65;8.88;;;20.80;99.90;;;;;;4946474;29;20039;-70
2022/07/21 05:21:46;;;;;;;10.98;8.73;;;20.80;99.90;;;;;;4963054;29;20224;-71
2022/07/21 05:24:12;;;;;;;10.38;8.30;;;20.90;99.90;;;;;;4964187;29;20228;-69
2022/07/21 05:26:38;;;;;;;11.65;8.85;;;20.90;99.90;;;;;;4962700;29;20032;-72
2022/07/21 05:29:04;;;;;;;10.85;9.38;;;21.00;99.90;;;;;;4963420;29;20054;-71
2022/07/21 05:31:30;;;;;;;11.63;8.95;;;21.10;99.90;;;;;;4963587;28;20043;-70
2022/07/21 05:33:55;;;;;;;9.38;8.35;;;21.10;99.90;;;;;;4946669;29;20039;-69
2022/07/21 05:36:21;;;;;;;11.15;8.15;;;21.20;99.90;;;;;;4963915;29;20031;-69
2022/07/21 05:38:47;;;;;;;11.80;8.73;;;21.40;99.90;;;;;;4963493;29;20030;-72
2022/07/21 05:41:13;;;;;;;9.90;8.45;;;21.60;99.90;;;;;;4963532;29;20035;-70
2022/07/21 05:43:39;;;;;;;11.45;8.90;;;21.80;99.90;;;;;;4962895;29;20031;-69
2022/07/21 05:46:05;;;;;;;10.30;8.15;;;21.90;99.90;;;;;;4962937;28;20054;-69
2022/07/21 05:48:30;;;;;;;15.00;9.02;;;22.00;99.90;;;;;;4959067;28;20030;-69
2022/07/21 05:50:56;;;;;;;9.73;8.73;;;22.00;99.90;;;;;;4957833;29;20027;-68
2022/07/21 05:53:22;;;;;;;8.40;7.18;;;22.10;99.90;;;;;;4952160;29;20071;-70
2022/07/21 05:55:48;;;;;;;10.32;8.35;;;22.20;99.90;;;;;;4959980;29;20035;-70
2022/07/21 05:58:15;;;;;;;11.95;8.43;;;22.30;99.90;;;;;;4932717;29;20030;-70
2022/07/21 06:00:41;;;;;;;10.43;8.68;;;22.50;99.90;;;;;;4960287;28;20070;-69
2022/07/21 06:03:07;;;;;;;10.60;8.57;;;22.60;99.90;;;;;;4944050;29;20294;-70
2022/07/21 06:05:33;;;;;;;10.93;8.50;;;22.60;99.90;;;;;;4944027;29;20023;-70
2022/07/21 06:08:00;;;;;;;10.90;7.95;;;22.60;99.90;;;;;;4942172;29;20071;-71
2022/07/21 06:10:26;;;;;;;11.55;8.60;;;22.70;99.90;;;;;;4942389;29;20046;-69
2022/07/21 06:12:52;;;;;;;10.00;8.68;;;22.80;99.90;;;;;;4942452;29;20236;-70
2022/07/21 06:15:20;;;;;;;10.38;8.57;;;22.80;99.90;;;;;;4940788;29;20043;-70
2022/07/21 06:17:46;;;;;;;9.52;8.32;;;22.80;99.90;;;;;;4946360;29;20039;-70
2022/07/21 06:20:12;;;;;;;9.65;7.85;;;22.90;99.90;;;;;;4947326;29;20063;-70
2022/07/21 06:22:38;;;;;;;12.82;8.65;;;23.00;99.90;;;;;;4946289;29;20205;-70
2022/07/21 06:25:05;;;;;;;12.18;9.65;;;23.00;99.90;;;;;;4947546;29;20031;-70
2022/07/21 06:27:31;;;;;;;10.85;8.88;;;23.00;99.90;;;;;;4946725;29;20019;-69
2022/07/21 06:29:58;;;;;;;11.15;8.68;;;23.00;99.90;;;;;;4947675;29;20047;-72
2022/07/21 06:32:25;;;;;;;13.23;9.25;;;23.10;99.90;;;;;;4945470;29;20039;-71
2022/07/21 06:35:10;;;;;;;12.25;8.55;;;23.20;99.90;;;;;;4928957;29;20049;-74
2022/07/21 06:37:46;;;;;;;11.45;8.60;;;23.30;99.90;;;;;;4946962;29;20024;-71
2022/07/21 06:40:13;;;;;;;9.35;8.05;;;23.50;99.90;;;;;;4925632;29;20024;-71
2022/07/21 06:42:39;;;;;;;9.30;8.23;;;23.70;99.90;;;;;;4941698;29;20086;-70
2022/07/21 06:45:05;;;;;;;10.30;7.82;;;24.10;99.90;;;;;;4943922;29;20028;-70
2022/07/21 06:47:31;;;;;;;8.57;7.38;;;24.10;99.90;;;;;;4945481;29;20031;-70
2022/07/21 06:50:02;;;;;;;8.68;7.00;;;24.10;99.90;;;;;;4945184;29;20028;-69
2022/07/21 06:52:28;;;;;;;8.20;6.53;;;24.00;99.90;;;;;;4945514;29;20043;-70
2022/07/21 06:54:54;;;;;;;8.85;7.28;;;23.70;99.90;;;;;;4944745;29;20055;-69
2022/07/21 06:57:20;;;;;;;7.47;6.18;;;23.40;99.90;;;;;;4945052;29;20039;-69
2022/07/21 06:59:46;;;;;;;9.48;7.32;;;23.10;99.90;;;;;;4944578;29;20043;-69
2022/07/21 07:02:11;;;;;;;8.75;6.70;;;22.80;99.90;;;;;;4944612;29;20070;-71
2022/07/21 07:04:37;;;;;;;7.30;5.88;;;22.80;99.90;;;;;;4945493;29;20078;-69
2022/07/21 07:07:03;;;;;;;10.63;6.60;;;22.90;99.90;;;;;;4945274;29;20039;-71
2022/07/21 07:09:30;;;;;;;7.20;6.28;;;23.00;99.90;;;;;;4943976;29;20070;-71
2022/07/21 07:12:03;;;;;;;13.18;6.90;;;23.30;99.90;;;;;;4944747;29;20321;-69
2022/07/21 07:14:33;;;;;;;9.18;6.03;;;23.50;99.90;;;;;;4945037;29;20023;-72
2022/07/21 07:16:59;;;;;;;9.00;6.60;;;23.50;99.90;;;;;;4944127;29;20126;-70
2022/07/21 07:19:25;;;;;;;10.55;6.47;;;23.60;99.90;;;;;;4945113;29;20047;-71
2022/07/21 07:21:51;;;;;;;8.77;6.70;;;23.70;99.90;;;;;;4927523;29;20031;-71
2022/07/21 07:24:17;;;;;;;8.23;6.70;;;23.90;99.90;;;;;;4945065;29;20047;-70
2022/07/21 07:26:42;;;;;;;9.23;6.30;;;24.00;99.90;;;;;;4944754;29;20031;-71
2022/07/21 07:29:09;;;;;;;8.55;6.18;;;24.20;99.70;;;;;;4945261;29;20102;-70
2022/07/21 07:31:35;;;;;;;6.90;5.32;;;24.00;99.10;;;;;;4944122;29;20035;-70
2022/07/21 07:34:01;;;;;;;7.93;5.82;;;24.10;99.30;;;;;;4941043;29;20221;-71
2022/07/21 07:36:28;;;;;;;6.85;5.90;;;24.20;99.60;;;;;;4944359;29;20028;-69
2022/07/21 07:38:56;;;;;;;7.85;5.35;;;24.20;99.10;;;;;;4939355;29;20035;-69
2022/07/21 07:41:23;;;;;;;8.30;6.47;;;24.30;98.10;;;;;;4943776;29;20043;-69
2022/07/21 07:43:49;;;;;;;9.75;6.00;;;24.60;98.50;;;;;;4943484;29;20043;-70
2022/07/21 07:46:15;;;;;;;7.15;6.43;;;24.60;98.40;;;;;;4926868;29;20177;-70
2022/07/21 07:48:41;;;;;;;7.68;6.03;;;24.60;98.60;;;;;;4944510;29;20038;-71
2022/07/21 07:51:08;;;;;;;8.68;6.55;;;24.70;97.30;;;;;;4945462;29;20051;-70
2022/07/21 07:53:34;;;;;;;8.88;6.72;;;24.70;97.30;;;;;;4941729;29;20035;-71
2022/07/21 07:56:00;;;;;;;6.75;5.40;;;24.60;97.60;;;;;;4944698;29;20070;-71
2022/07/21 07:58:26;;;;;;;8.13;5.65;;;24.70;96.70;;;;;;4945432;29;20031;-70
2022/07/21 08:00:52;;;;;;;7.80;5.78;;;24.90;96.30;;;;;;4943079;29;20326;-69
2022/07/21 08:03:18;;;;;;;6.40;5.38;;;24.90;95.70;;;;;;4944886;29;20513;-72
2022/07/21 08:05:44;;;;;;;6.05;5.10;;;24.90;95.70;;;;;;4943705;29;20094;-71
2022/07/21 08:08:10;;;;;;;8.63;5.97;;;25.00;95.20;;;;;;4945388;29;20031;-73
2022/07/21 08:10:36;;;;;;;7.80;5.70;;;24.90;95.60;;;;;;4945050;29;20031;-71
2022/07/21 08:13:02;;;;;;;7.57;5.22;;;25.00;94.90;;;;;;4944446;29;20070;-69
2022/07/21 08:15:28;;;;;;;6.82;5.55;;;25.30;94.40;;;;;;4944349;29;20055;-70
2022/07/21 08:17:53;;;;;;;6.57;4.78;;;25.40;93.60;;;;;;4944249;29;20040;-76
2022/07/21 08:20:19;;;;;;;5.30;4.63;;;25.40;92.60;;;;;;4944795;29;20099;-69
2022/07/21 08:22:45;;;;;;;7.38;4.80;;;25.60;92.60;;;;;;4944510;29;20031;-71
2022/07/21 08:25:11;;;;;;;7.90;5.15;;;26.00;92.40;;;;;;4945052;29;20041;-69
2022/07/21 08:27:38;;;;;;;7.13;4.53;;;26.10;91.50;;;;;;4944892;29;20086;-70
2022/07/21 08:30:04;;;;;;;9.45;4.80;;;25.90;91.00;;;;;;4943594;29;20043;-70
2022/07/21 08:32:30;;;;;;;6.20;4.75;;;25.70;91.40;;;;;;4944735;29;20028;-73
2022/07/21 08:34:56;;;;;;;7.03;4.57;;;25.80;91.00;;;;;;4943824;29;20145;-71
2022/07/21 08:37:22;;;;;;;6.10;4.57;;;26.00;91.00;;;;;;4944349;29;20038;-70
2022/07/21 08:39:48;;;;;;;6.55;4.68;;;25.90;91.10;;;;;;4943921;29;20274;-69
2022/07/21 08:42:14;;;;;;;6.80;4.68;;;26.10;90.60;;;;;;4944390;29;20381;-75
2022/07/21 08:44:40;;;;;;;6.28;4.53;;;26.40;90.30;;;;;;4944673;29;20019;-77
2022/07/21 08:47:06;;;;;;;8.07;5.20;;;26.80;88.90;;;;;;4912267;29;20226;-69
2022/07/21 08:49:36;;;;;;;6.85;5.35;;;26.90;89.20;;;;;;4945157;29;20036;-70
2022/07/21 08:52:05;;;;;;;7.00;5.15;;;26.90;86.40;;;;;;4926543;29;20036;-69
2022/07/21 08:54:32;;;;;;;5.57;4.53;;;26.80;87.90;;;;;;4927664;29;20035;-71
2022/07/21 08:56:58;;;;;;;6.18;4.95;;;26.70;88.50;;;;;;4926710;29;20147;-72
2022/07/21 08:59:23;;;;;;;6.10;4.70;;;26.50;89.20;;;;;;4940784;29;20098;-71
2022/07/21 09:01:49;;;;;;;6.25;4.78;;;26.10;89.40;;;;;;4939883;29;20089;-70
2022/07/21 09:04:23;;;;;;;6.80;4.95;;;26.00;90.40;;;;;;4943804;29;20303;-69
2022/07/21 09:06:54;;;;;;;6.32;4.70;;;26.00;90.00;;;;;;4933112;29;20364;-69
2022/07/21 09:09:21;;;;;;;6.18;4.57;;;26.20;89.20;;;;;;4944090;29;20028;-70
2022/07/21 09:11:47;;;;;;;6.50;4.60;;;26.30;89.60;;;;;;4937258;29;20055;-71
2022/07/21 09:14:18;;;;;;;7.18;4.90;;;26.40;88.80;;;;;;4944190;29;20027;-71
2022/07/21 09:17:00;;;;;;;8.00;4.88;;;26.40;88.60;;;;;;4959708;28;20241;-72
2022/07/21 09:19:31;;;;;;;6.32;4.32;;;26.40;88.40;;;;;;4944822;29;20040;-72
2022/07/21 09:21:59;;;;;;;6.25;4.38;;;26.70;87.00;;;;;;4943824;29;20082;-72
2022/07/21 09:24:31;;;;;;;6.05;3.90;;;26.80;84.40;;;;;;4938653;29;20032;-71
2022/07/21 09:27:00;;;;;;;6.85;4.50;;;26.80;84.80;;;;;;4943085;29;20028;-72
2022/07/21 09:29:26;;;;;;;5.40;4.10;;;26.90;84.40;;;;;;4943881;29;20203;-70
2022/07/21 09:31:52;;;;;;;5.45;3.80;;;26.80;84.00;;;;;;4942504;29;20067;-73
2022/07/21 09:34:20;;;;;;;5.43;4.13;;;26.60;83.90;;;;;;4939827;29;20325;-72
2022/07/21 09:36:57;;;;;;;6.47;4.00;;;26.80;84.00;;;;;;4943273;29;20039;-71
2022/07/21 09:39:56;;;;;;;6.35;4.05;;;27.00;84.10;;;;;;4942523;29;20122;-72
2022/07/21 09:42:29;;;;;;;4.97;3.80;;;27.00;84.00;;;;;;4943485;29;20041;-72
2022/07/21 09:45:00;;;;;;;5.43;3.97;;;27.10;83.80;;;;;;4942715;29;20364;-69
2022/07/21 09:47:31;;;;;;;5.25;3.90;;;27.20;82.00;;;;;;4926426;29;20211;-72
2022/07/21 09:49:58;;;;;;;4.50;3.80;;;27.30;81.30;;;;;;4942225;29;20099;-71
2022/07/21 09:52:29;;;;;;;6.40;4.20;;;27.30;80.80;;;;;;4943382;29;20122;-72
2022/07/21 09:54:58;;;;;;;6.65;3.80;;;27.20;81.20;;;;;;4942865;29;20309;-71
2022/07/21 09:57:25;;;;;;;5.05;3.80;;;27.20;81.20;;;;;;4943624;29;20059;-73
2022/07/21 09:59:51;;;;;;;5.38;3.92;;;27.30;80.90;;;;;;4942006;29;20043;-70
2022/07/21 10:02:25;;;;;;;5.55;4.20;;;27.50;80.20;;;;;;4949813;29;20122;-72
2022/07/21 10:05:00;;;;;;;5.07;4.25;;;27.50;80.40;;;;;;4962248;29;20103;-75
2022/07/21 10:07:27;;;;;;;7.32;4.57;;;27.80;79.20;;;;;;4962429;29;20031;-71
2022/07/21 10:09:53;;;;;;;6.35;4.10;;;27.80;79.70;;;;;;4954442;29;20011;-70
2022/07/21 10:12:20;;;;;;;6.03;3.63;;;28.00;78.40;;;;;;4942942;29;20050;-73
2022/07/21 10:14:46;;;;;;;5.80;3.63;;;28.30;77.70;;;;;;4942915;29;20046;-70
2022/07/21 10:17:20;;;;;;;6.28;3.83;;;28.50;77.40;;;;;;4942933;29;20108;-80
2022/07/21 10:19:58;;;;;;;5.53;3.75;;;28.70;77.40;;;;;;4943018;29;20106;-71
2022/07/21 10:22:39;;;;;;;4.95;3.53;;;28.60;77.00;;;;;;4943534;29;20040;-73
2022/07/21 10:25:06;;;;;;;5.05;3.65;;;28.70;76.40;;;;;;4944804;29;20058;-70
2022/07/21 10:27:32;;;;;;;5.10;3.13;;;29.10;75.50;;;;;;4948013;29;20039;-73
2022/07/21 10:30:00;;;;;;;5.05;3.50;;;29.50;72.30;;;;;;4949099;29;20046;-74
2022/07/21 10:32:36;;;;;;;4.43;3.08;;;29.30;72.50;;;;;;4947492;29;20357;-71
2022/07/21 10:35:31;;;;;;;5.20;4.05;;;28.80;74.30;;;;;;4928696;29;20040;-72
2022/07/21 10:37:58;;;;;;;5.13;3.78;;;28.50;77.70;;;;;;4925125;29;20115;-71
2022/07/21 10:40:24;;;;;;;5.20;3.83;;;28.70;77.70;;;;;;4925470;29;20040;-71
2022/07/21 10:42:58;;;;;;;4.20;3.58;;;28.80;77.00;;;;;;4943303;29;20032;-73
2022/07/21 10:45:32;;;;;;;6.10;3.28;;;28.80;76.20;;;;;;4942541;29;20106;-72
2022/07/21 10:47:59;;;;;;;5.55;3.90;;;28.60;74.90;;;;;;4942688;29;20047;-72
2022/07/21 10:50:33;;;;;;;4.05;2.60;;;28.60;74.00;;;;;;4943110;29;20276;-72
2022/07/21 10:53:04;;;;;;;4.70;2.90;;;28.50;70.00;;;;;;4942120;29;20098;-74
2022/07/21 10:55:35;;;;;;;3.28;2.50;;;28.80;73.20;;;;;;4943315;29;20385;-72
2022/07/21 10:58:22;;;;;;;4.10;2.95;;;29.20;69.80;;;;;;4942510;29;20278;-72
2022/07/21 11:00:52;;;;;;;4.03;2.83;;;29.40;68.60;;;;;;4943672;29;20052;-71
2022/07/21 11:03:30;;;;;;;4.47;2.63;;;29.10;69.00;;;;;;4938652;29;20048;-70
2022/07/21 11:06:19;;;;;;;4.00;2.50;;;29.50;69.70;;;;;;4943420;29;20043;-72
2022/07/21 11:08:46;;;;;;;5.13;2.72;;;29.80;68.80;;;;;;4925829;29;20032;-73
2022/07/21 11:11:22;;;;;;;3.25;2.53;;;30.10;67.50;;;;;;4935926;29;20444;-71
2022/07/21 11:14:12;;;;;;;4.93;2.70;;;29.90;68.20;;;;;;4926487;29;20096;-71
2022/07/21 11:16:52;;;;;;;4.15;3.33;;;30.20;69.10;;;;;;4926822;29;20040;-70
2022/07/21 11:19:40;;;;;;;5.57;3.25;;;30.40;70.70;;;;;;4932268;29;20266;-70
2022/07/21 11:22:33;;;;;;;5.13;3.05;;;30.20;70.30;;;;;;4945395;29;20048;-71
2022/07/21 11:25:02;;;;;;;6.65;4.05;;;30.10;70.60;;;;;;4941681;29;20048;-69
2022/07/21 11:27:31;;;;;;;3.83;2.90;;;30.20;71.00;;;;;;4945732;29;20024;-71
2022/07/21 11:29:59;;;;;;;5.18;3.30;;;30.50;70.70;;;;;;4944406;29;20039;-70
2022/07/21 11:32:25;;;;;;;;;;;31.00;70.10;;;;;;4945631;29;20048;-69
2022/07/21 11:34:59;;;;;;;4.75;3.17;;;31.50;68.80;;;;;;4928508;29;20092;-71
2022/07/21 11:37:41;;;;;;;4.50;2.67;;;32.20;65.90;;;;;;4945657;29;20039;-70
2022/07/21 11:40:11;;;;;;;3.78;2.70;;;32.50;63.10;;;;;;4945454;29;20035;-71
2022/07/21 11:42:37;;;;;;;3.78;2.80;;;32.30;63.20;;;;;;4945688;29;20035;-70
2022/07/21 11:45:05;;;;;;;4.70;2.60;;;32.10;62.50;;;;;;4944465;29;20164;-72
2022/07/21 11:47:31;;;;;;;4.72;2.70;;;32.40;62.70;;;;;;4949509;29;20162;-70
2022/07/21 11:49:59;;;;;;;3.92;2.60;;;32.60;61.90;;;;;;4945002;29;20020;-72
2022/07/21 11:52:29;;;;;;;;;;;32.00;62.10;;;;;;4951890;29;20042;-72
2022/07/21 11:54:57;;;;;;;3.90;2.67;;;31.40;62.90;;;;;;4963189;29;19914;-70
2022/07/21 11:57:23;;;;;;;;;;;30.90;63.30;;;;;;4965163;29;20070;-71
2022/07/21 11:59:52;;;;;;;5.22;2.75;;;30.70;64.80;;;;;;4963964;29;19973;-71
2022/07/21 12:02:29;;;;;;;;;;;30.80;65.80;;;;;;4947115;29;20240;-71
2022/07/21 12:04:57;;;;;;;5.15;2.90;;;30.90;65.40;;;;;;4964248;29;19906;-70
2022/07/21 12:07:26;;;;;;;3.83;2.60;;;31.00;64.90;;;;;;4964606;29;20031;-72
2022/07/21 12:09:55;;;;;;;4.70;2.55;;;31.60;62.60;;;;;;4956701;29;20042;-71
2022/07/21 12:12:42;;;;;;;4.57;2.90;;;31.20;64.30;;;;;;4927353;29;20066;-71
2022/07/21 12:15:23;;;;;;;4.53;2.80;;;31.00;65.10;;;;;;4943591;29;20098;-70
2022/07/21 12:18:00;;;;;;;4.72;3.00;;;30.60;65.40;;;;;;4925601;29;20095;-71
2022/07/21 12:20:33;;;;;;;3.58;3.03;;;31.30;64.00;;;;;;4926032;29;20040;-71
2022/07/21 12:23:20;;;;;;;6.25;2.85;;;32.50;61.90;;;;;;4927693;29;20063;-71
2022/07/21 12:25:46;;;;;;;4.03;2.72;;;34.40;58.90;;;;;;4944725;29;20043;-73
2022/07/21 12:28:13;;;;;;;4.97;2.60;;;36.00;57.10;;;;;;4943971;29;20046;-71
2022/07/21 12:30:43;;;;;;;4.27;2.90;;;37.60;55.10;;;;;;4943806;29;20036;-72
2022/07/21 12:33:28;;;;;;;4.43;2.30;;;38.30;54.00;;;;;;4933049;29;20052;-71
2022/07/21 12:36:06;;;;;;;3.95;3.10;;;37.40;55.40;;;;;;4944683;29;20028;-80
2022/07/21 12:38:38;;;;;;;4.07;3.00;;;36.10;56.50;;;;;;4944986;29;20035;-80
2022/07/21 12:41:04;;;;;;;4.82;3.70;;;35.00;58.10;;;;;;4930309;29;20209;-79
2022/07/21 12:43:30;;;;;;;5.93;3.75;;;33.60;60.10;;;;;;4944500;29;20036;-72
2022/07/21 12:46:17;;;;;;;4.85;3.58;;;33.00;61.50;;;;;;4910381;29;20036;-69
2022/07/21 12:48:43;;;;;;;6.43;4.13;;;34.80;60.60;;;;;;4944449;29;20336;-71
2022/07/21 12:51:14;;;;;;;4.45;3.70;;;35.70;58.90;;;;;;4943726;29;20275;-70
2022/07/21 12:53:55;;;;;;;5.90;3.90;;;35.00;58.80;;;;;;4927313;29;20048;-70
2022/07/21 12:56:29;;;;;;;5.00;4.03;;;33.90;60.00;;;;;;4944032;29;20346;-71
2022/07/21 12:58:56;;;;;;;6.15;3.90;;;33.50;61.30;;;;;;4943757;29;20039;-71
2022/07/21 13:01:24;;;;;;;5.65;3.85;;;34.80;60.10;;;;;;4943528;29;20336;-71
2022/07/21 13:03:50;;;;;;;;;;;37.30;57.70;;;;;;4944013;29;20044;-70
2022/07/21 13:06:16;;;;;;;4.80;3.35;;;39.30;54.70;;;;;;4944356;29;19906;-71
2022/07/21 13:08:44;;;;;;;4.05;3.30;;;40.60;52.40;;;;;;4943744;29;20038;-71
2022/07/21 13:11:18;;;;;;;4.70;3.40;;;40.50;51.80;;;;;;4943249;29;20063;-72
2022/07/21 13:13:45;;;;;;;4.13;3.28;;;39.90;51.80;;;;;;4944432;29;20031;-71
2022/07/21 13:16:11;;;;;;;5.07;3.50;;;39.60;52.90;;;;;;4943621;29;20039;-70
2022/07/21 13:18:37;;;;;;;3.85;3.30;;;40.30;52.50;;;;;;4943945;29;20035;-71
2022/07/21 13:21:04;;;;;;;4.13;3.50;;;39.10;52.70;;;;;;4943527;29;20039;-71
2022/07/21 13:23:30;;;;;;;4.40;3.37;;;38.60;53.20;;;;;;4944047;29;20040;-71
2022/07/21 13:25:56;;;;;;;4.75;3.45;;;39.40;53.00;;;;;;4943006;29;20415;-71
2022/07/21 13:28:21;;;;;;;4.85;3.50;;;39.40;52.20;;;;;;4943952;29;20039;-71
2022/07/21 13:30:47;;;;;;;6.85;3.83;;;38.30;53.50;;;;;;4943117;29;20042;-70
2022/07/21 13:33:14;;;;;;;4.55;3.60;;;36.90;54.40;;;;;;4934843;29;20100;-71
2022/07/21 13:35:41;;;;;;;5.90;3.88;;;36.00;55.90;;;;;;4924885;29;20099;-71
2022/07/21 13:38:07;;;;;;;4.13;3.45;;;37.80;54.60;;;;;;4924162;29;20040;-72
2022/07/21 13:40:32;;;;;;;5.63;3.17;;;40.00;52.60;;;;;;4927489;29;20099;-71
2022/07/21 13:43:03;;;;;;;5.30;3.40;;;41.90;50.90;;;;;;4943581;29;20039;-72
2022/07/21 13:45:29;;;;;;;4.15;2.88;;;43.40;49.00;;;;;;4943068;29;20155;-72
2022/07/21 13:47:54;;;;;;;3.88;3.17;;;42.40;49.20;;;;;;4941557;29;20039;-70
2022/07/21 13:50:20;;;;;;;3.47;2.90;;;42.40;48.70;;;;;;4943613;29;20031;-73
2022/07/21 13:52:46;;;;;;;3.13;2.83;;;43.00;48.40;;;;;;4943387;29;20046;-71
2022/07/21 13:55:11;;;;;;;4.07;3.00;;;43.70;47.70;;;;;;4942536;29;20036;-71
2022/07/21 13:57:37;;;;;;;5.90;2.90;;;44.50;46.70;;;;;;4943380;29;20302;-72
2022/07/21 14:00:07;;;;;;;5.57;2.80;;;45.10;46.00;;;;;;4942722;29;20201;-70
2022/07/21 14:02:33;;;;;;;3.60;2.60;;;45.80;45.60;;;;;;4942909;29;20048;-71
2022/07/21 14:04:59;;;;;;;4.68;2.83;;;46.00;44.70;;;;;;4943075;29;20039;-70
2022/07/21 14:07:25;;;;;;;3.75;2.95;;;44.50;45.30;;;;;;4942852;29;20083;-70
2022/07/21 14:09:51;;;;;;;4.30;2.85;;;44.50;46.10;;;;;;4942060;29;20023;-71
2022/07/21 14:12:18;;;;;;;3.70;2.67;;;45.40;44.50;;;;;;4943002;29;20050;-71
2022/07/21 14:14:46;;;;;;;3.50;2.60;;;44.90;44.70;;;;;;4930883;29;20055;-71
2022/07/21 14:17:16;;;;;;;5.57;2.30;;;44.30;44.80;;;;;;4923137;29;20183;-70
2022/07/21 14:19:43;;;;;;;3.33;2.40;;;45.90;45.40;;;;;;4907356;29;20055;-71
2022/07/21 14:22:10;;;;;;;3.30;2.50;;;47.00;43.20;;;;;;4940690;29;20038;-71
2022/07/21 14:27:20;;;;;;;4.72;2.50;;;45.40;43.30;;;;;;4942779;29;19981;-71
2022/07/21 14:29:46;;;;;;;4.43;3.03;;;43.40;44.40;;;;;;4939348;29;20050;-71
2022/07/21 14:32:11;;;;;;;3.63;2.90;;;42.10;45.30;;;;;;4922770;29;20080;-73
2022/07/21 14:34:37;;;;;;;2.90;2.47;;;42.40;45.10;;;;;;4939730;29;20031;-71
2022/07/21 14:37:03;;;;;;;3.20;2.45;;;42.00;45.70;;;;;;4929314;29;20032;-71
2022/07/21 14:39:29;;;;;;;3.28;2.60;;;43.30;44.30;;;;;;4946477;29;20135;-72
2022/07/21 14:41:54;;;;;;;4.00;2.80;;;42.60;44.40;;;;;;4941017;29;20098;-72
2022/07/21 14:44:20;;;;;;;3.97;2.72;;;41.30;45.50;;;;;;4955466;29;20309;-72
2022/07/21 14:46:46;;;;;;;4.22;3.10;;;40.30;46.00;;;;;;4946092;29;20092;-71
2022/07/21 14:49:11;;;;;;;3.83;2.85;;;38.50;47.70;;;;;;4946417;29;20044;-71
2022/07/21 14:51:37;;;;;;;4.32;3.10;;;37.60;48.80;;;;;;4933585;29;20036;-72
2022/07/21 14:54:03;;;;;;;4.85;3.45;;;36.90;49.40;;;;;;4926623;29;20292;-74
2022/07/21 14:56:29;;;;;;;4.53;3.15;;;36.80;49.90;;;;;;4927499;29;20020;-75
2022/07/21 14:58:55;;;;;;;5.22;3.10;;;36.50;50.10;;;;;;4927104;29;20058;-72
2022/07/21 15:01:23;;;;;;;4.53;2.90;;;37.50;51.00;;;;;;4938927;29;20047;-70
2022/07/21 15:03:48;;;;;;;4.07;2.90;;;38.60;48.90;;;;;;4946234;29;20114;-71
2022/07/21 15:06:14;;;;;;;3.85;2.70;;;40.20;48.10;;;;;;4946175;29;20036;-71
2022/07/21 15:08:40;;;;;;;3.53;2.60;;;39.70;48.20;;;;;;4945964;29;20062;-73
2022/07/21 15:11:05;;;;;;;4.50;2.47;;;39.60;47.80;;;;;;4945676;29;20090;-72
2022/07/21 15:13:31;;;;;;;3.50;2.67;;;39.00;48.20;;;;;;4945993;29;20040;-72
2022/07/21 15:15:57;;;;;;;4.60;2.40;;;39.40;48.60;;;;;;4944181;29;20077;-72
2022/07/21 15:18:23;;;;;;;6.63;3.10;;;39.20;48.40;;;;;;4946491;29;20102;-74
2022/07/21 15:20:49;;;;;;;3.97;2.53;;;38.70;48.70;;;;;;4946336;29;20035;-71
2022/07/21 15:23:15;;;;;;;3.97;2.50;;;37.70;49.50;;;;;;4945473;29;20059;-70
2022/07/21 15:25:40;;;;;;;5.03;3.25;;;36.70;50.50;;;;;;4944737;29;20291;-79
2022/07/21 15:28:06;;;;;;;4.80;2.67;;;35.90;51.20;;;;;;4930063;29;20090;-71
2022/07/21 15:30:33;;;;;;;3.42;2.47;;;36.30;51.70;;;;;;4946415;29;20036;-71
2022/07/21 15:33:23;;;;;;;4.78;2.30;;;38.50;49.70;;;;;;4946912;29;20035;-83
2022/07/21 15:35:53;;;;;;;4.32;2.55;;;41.60;47.30;;;;;;4946375;29;20044;-73
2022/07/21 15:38:23;;;;;;;3.38;2.03;;;43.20;45.50;;;;;;4947253;29;20032;-72
2022/07/21 15:40:49;;;;;;;3.85;2.20;;;41.70;45.60;;;;;;4946916;29;20306;-72
2022/07/21 15:43:16;;;;;;;3.75;2.30;;;40.00;46.70;;;;;;4946205;29;20040;-69
2022/07/21 15:45:42;;;;;;;3.42;2.40;;;38.60;48.40;;;;;;4945688;29;20302;-69
2022/07/21 15:48:08;;;;;;;2.95;2.20;;;37.50;49.70;;;;;;4944953;29;20197;-74
2022/07/21 15:50:35;;;;;;;4.85;2.92;;;36.20;50.50;;;;;;4946544;29;20046;-71
2022/07/21 15:53:00;;;;;;;4.78;2.65;;;34.70;51.90;;;;;;4946198;29;20043;-71
2022/07/21 15:55:26;;;;;;;3.65;2.40;;;34.00;53.50;;;;;;4947028;29;20035;-71
2022/07/21 15:57:52;;;;;;;4.13;2.58;;;33.60;54.40;;;;;;4940080;29;20028;-70
2022/07/21 16:00:18;;;;;;;3.28;2.40;;;33.40;53.50;;;;;;4947393;29;20038;-71
2022/07/21 16:02:44;;;;;;;5.20;2.70;;;33.40;55.10;;;;;;4928185;29;20055;-72
2022/07/21 16:05:19;;;;;;;3.97;2.58;;;33.40;55.00;;;;;;4930273;29;20028;-72
2022/07/21 16:07:46;;;;;;;5.38;2.85;;;33.50;54.10;;;;;;4928189;29;20310;-71
2022/07/21 16:10:13;;;;;;;3.88;2.45;;;33.90;54.20;;;;;;4927183;29;20036;-70
2022/07/21 16:12:39;;;;;;;4.13;2.35;;;35.30;53.30;;;;;;4927370;29;20088;-71
2022/07/21 16:15:06;;;;;;;4.35;2.40;;;38.30;50.70;;;;;;4926348;29;20032;-72
2022/07/21 16:17:33;;;;;;;3.33;2.40;;;40.60;47.90;;;;;;4927035;29;20157;-72
2022/07/21 16:19:59;;;;;;;3.67;2.13;;;42.40;45.70;;;;;;4926637;29;20230;-73
2022/07/21 16:22:25;;;;;;;3.70;2.33;;;43.20;44.80;;;;;;4927313;29;20079;-72
2022/07/21 16:24:50;;;;;;;3.72;2.13;;;43.10;44.00;;;;;;4941996;29;20035;-72
2022/07/21 16:27:16;;;;;;;3.60;2.45;;;43.10;44.30;;;;;;4926333;29;20043;-70
2022/07/21 16:29:42;;;;;;;4.53;2.70;;;42.10;45.20;;;;;;4910224;29;20035;-72
2022/07/21 16:32:08;;;;;;;4.03;2.33;;;40.00;46.10;;;;;;4925963;29;20068;-71
2022/07/21 16:34:34;;;;;;;2.88;2.10;;;38.90;47.90;;;;;;4926666;29;20048;-71
2022/07/21 16:37:01;;;;;;;4.05;2.33;;;39.90;48.30;;;;;;4909409;29;20137;-70
2022/07/21 16:39:27;;;;;;;3.75;2.50;;;41.10;46.50;;;;;;4925567;29;20031;-72
2022/07/21 16:41:54;;;;;;;4.00;2.42;;;40.40;45.90;;;;;;4926533;29;20301;-72
2022/07/21 16:44:19;;;;;;;3.38;2.47;;;38.40;47.50;;;;;;4926419;29;20146;-71
2022/07/21 16:46:46;;;;;;;3.60;2.47;;;36.40;49.80;;;;;;4925869;29;20347;-70
2022/07/21 16:49:13;;;;;;;4.80;2.72;;;34.30;51.50;;;;;;4926527;29;20040;-70
2022/07/21 16:51:38;;;;;;;3.17;2.60;;;33.50;54.30;;;;;;4926572;29;20091;-71
2022/07/21 16:54:05;;;;;;;4.30;2.67;;;33.30;53.50;;;;;;4925860;29;20317;-70
2022/07/21 16:56:31;;;;;;;5.38;3.00;;;33.00;55.30;;;;;;4926820;29;20042;-70
2022/07/21 16:58:57;;;;;;;4.97;2.58;;;32.60;54.20;;;;;;4923265;29;20381;-69
2022/07/21 17:01:23;;;;;;;3.53;2.72;;;32.60;55.10;;;;;;4925229;29;20040;-69
2022/07/21 17:03:48;;;;;;;4.13;2.90;;;32.40;55.00;;;;;;4944956;29;20098;-70
2022/07/21 17:06:14;;;;;;;3.47;2.90;;;32.30;54.80;;;;;;4944581;29;20302;-70
2022/07/21 17:08:41;;;;;;;4.10;2.67;;;32.10;56.00;;;;;;4928582;29;20032;-73
2022/07/21 17:11:07;;;;;;;4.55;2.72;;;32.10;55.70;;;;;;4945328;29;20043;-72
2022/07/21 17:13:33;;;;;;;3.22;2.40;;;32.10;54.80;;;;;;4945529;29;20214;-70
2022/07/21 17:15:58;;;;;;;3.85;2.67;;;32.60;55.70;;;;;;4944445;29;20237;-71
2022/07/21 17:18:24;;;;;;;4.97;3.05;;;33.00;54.80;;;;;;4945329;29;20217;-72
2022/07/21 17:20:50;;;;;;;3.55;2.40;;;34.10;52.70;;;;;;4944980;29;20031;-72
2022/07/21 17:23:17;;;;;;;3.42;2.50;;;35.50;51.30;;;;;;4944563;29;20054;-73
2022/07/21 17:25:44;;;;;;;3.33;2.33;;;37.10;50.00;;;;;;4912508;29;20221;-74
2022/07/21 17:28:10;;;;;;;5.22;3.45;;;38.20;48.60;;;;;;4944462;29;20090;-73
2022/07/21 17:30:35;;;;;;;4.38;2.88;;;39.00;47.50;;;;;;4944286;29;20036;-71
2022/07/21 17:33:01;;;;;;;3.30;2.17;;;39.70;47.00;;;;;;4944620;29;20098;-73
2022/07/21 17:35:27;;;;;;;4.63;2.95;;;39.90;46.80;;;;;;4945384;29;20290;-74
2022/07/21 17:37:53;;;;;;;2.90;2.10;;;40.30;46.40;;;;;;4945437;29;20035;-71
2022/07/21 17:40:19;;;;;;;3.70;2.72;;;40.50;46.10;;;;;;4944766;29;20251;-74
2022/07/21 17:42:45;;;;;;;5.53;3.00;;;40.50;45.80;;;;;;4944847;29;20036;-72
2022/07/21 17:45:11;;;;;;;4.88;2.70;;;40.40;45.70;;;;;;4944219;29;20049;-73
2022/07/21 17:47:38;;;;;;;4.82;3.05;;;39.40;46.50;;;;;;4945534;29;20031;-73
2022/07/21 17:50:04;;;;;;;3.20;2.70;;;39.40;46.50;;;;;;4927716;29;20043;-75
2022/07/21 17:52:30;;;;;;;3.63;2.60;;;39.50;47.00;;;;;;4944757;29;20052;-74
2022/07/21 17:54:56;;;;;;;3.70;2.60;;;39.10;47.00;;;;;;4945006;29;20058;-73
2022/07/21 18:00:07;;;;;;;6.00;2.63;;;38.60;47.70;;;;;;4943930;29;20022;-74